createdAt,value
2022-09-07T00:01:20.819Z,10.50
2022-09-07T00:03:49.211Z,11.18
2022-09-07T00:06:17.552Z,10.77
2022-09-07T00:08:47.169Z,11.77
2022-09-07T00:11:18.567Z,12.20
2022-09-07T00:13:50.656Z,9.90
2022-09-07T00:16:22.854Z,11.00
2022-09-07T00:18:51.870Z,11.80
2022-09-07T00:21:20.163Z,8.57
2022-09-07T00:23:51.400Z,10.80
2022-09-07T00:26:22.713Z,11.23
2022-09-07T00:28:52.488Z,9.68
2022-09-07T00:31:24.484Z,9.48
2022-09-07T00:33:55.104Z,8.10
2022-09-07T00:36:24.638Z,12.20
2022-09-07T00:38:55.012Z,8.18
2022-09-07T00:41:24.560Z,12.98
2022-09-07T00:43:55.820Z,11.38
2022-09-07T00:46:27.190Z,10.40
2022-09-07T00:49:03.913Z,13.23
2022-09-07T00:51:40.628Z,12.73
2022-09-07T00:54:17.733Z,14.15
2022-09-07T00:56:49.896Z,12.23
2022-09-07T00:59:27.246Z,15.98
2022-09-07T01:01:55.988Z,16.73
2022-09-07T01:04:26.643Z,12.40
2022-09-07T01:06:56.402Z,14.20
2022-09-07T01:09:29.611Z,12.15
2022-09-07T01:12:02.120Z,13.10
2022-09-07T01:14:37.662Z,15.43
2022-09-07T01:17:20.021Z,12.18
2022-09-07T01:20:29.622Z,15.40
2022-09-07T01:23:37.013Z,11.55
2022-09-07T01:27:01.450Z,13.88
2022-09-07T01:29:38.932Z,13.00
2022-09-07T01:32:19.988Z,10.48
2022-09-07T01:34:55.138Z,9.70
2022-09-07T01:37:34.031Z,13.52
2022-09-07T01:40:10.975Z,11.10
2022-09-07T01:42:50.289Z,11.88
2022-09-07T01:45:25.961Z,13.30
2022-09-07T01:47:59.809Z,12.43
2022-09-07T01:50:36.529Z,14.25
2022-09-07T01:53:15.323Z,13.27
2022-09-07T01:55:49.701Z,10.20
2022-09-07T01:58:25.295Z,13.68
2022-09-07T02:01:02.911Z,10.75
2022-09-07T02:03:38.595Z,13.77
2022-09-07T02:06:15.404Z,11.73
2022-09-07T02:08:51.452Z,14.32
2022-09-07T02:11:25.124Z,11.02
2022-09-07T02:14:00.846Z,9.95
2022-09-07T02:16:33.506Z,14.38
2022-09-07T02:19:13.323Z,13.63
2022-09-07T02:21:46.290Z,9.70
2022-09-07T02:24:21.492Z,13.15
2022-09-07T02:26:53.779Z,9.88
2022-09-07T02:29:22.211Z,11.38
2022-09-07T02:31:52.111Z,8.57
2022-09-07T02:34:21.179Z,12.48
2022-09-07T02:36:52.274Z,11.63
2022-09-07T02:39:20.588Z,10.90
2022-09-07T02:41:48.925Z,10.63
2022-09-07T02:44:22.202Z,10.32
2022-09-07T02:47:14.305Z,11.10
2022-09-07T02:50:10.885Z,11.95
2022-09-07T02:52:55.970Z,8.75
2022-09-07T02:55:39.158Z,11.65
2022-09-07T02:58:27.840Z,17.20
2022-09-07T03:01:10.377Z,14.43
2022-09-07T03:03:53.383Z,15.52
2022-09-07T03:06:30.043Z,11.02
2022-09-07T03:09:02.956Z,13.43
2022-09-07T03:11:31.919Z,14.80
2022-09-07T03:14:14.759Z,13.98
2022-09-07T03:16:43.620Z,15.20
2022-09-07T03:19:13.269Z,11.63
2022-09-07T03:21:41.653Z,12.88
2022-09-07T03:24:10.571Z,13.35
2022-09-07T03:26:44.646Z,14.52
2022-09-07T03:29:13.420Z,14.15
2022-09-07T03:31:41.937Z,17.85
2022-09-07T03:34:10.613Z,17.70
2022-09-07T03:36:40.360Z,13.52
2022-09-07T03:39:08.679Z,11.35
2022-09-07T03:41:36.975Z,17.63
2022-09-07T03:44:06.919Z,16.50
2022-09-07T03:46:36.229Z,14.15
2022-09-07T03:49:04.552Z,12.65
2022-09-07T03:51:32.857Z,14.82
2022-09-07T03:54:02.677Z,15.13
2022-09-07T03:56:31.049Z,12.40
2022-09-07T03:58:59.431Z,12.32
2022-09-07T04:01:28.826Z,17.77
2022-09-07T04:04:02.687Z,11.82
2022-09-07T04:06:32.541Z,15.25
2022-09-07T04:09:05.901Z,13.10
2022-09-07T04:11:34.739Z,12.45
2022-09-07T04:14:03.238Z,14.80
2022-09-07T04:16:31.789Z,16.42
2022-09-07T04:19:00.559Z,14.13
2022-09-07T04:21:31.582Z,14.07
2022-09-07T04:24:00.579Z,12.23
2022-09-07T04:26:34.001Z,12.98
2022-09-07T04:29:02.968Z,15.15
2022-09-07T04:31:31.751Z,15.05
2022-09-07T04:34:00.053Z,10.32
2022-09-07T04:36:28.671Z,16.80
2022-09-07T04:38:59.550Z,14.93
2022-09-07T04:41:32.040Z,11.40
2022-09-07T04:44:03.345Z,14.07
2022-09-07T04:46:36.233Z,18.27
2022-09-07T04:49:09.402Z,14.38
2022-09-07T04:51:39.753Z,12.93
2022-09-07T04:54:08.196Z,15.60
2022-09-07T04:56:37.847Z,17.13
2022-09-07T04:59:07.336Z,15.68
2022-09-07T05:01:35.764Z,16.98
2022-09-07T05:04:05.733Z,12.95
2022-09-07T05:06:34.269Z,15.82
2022-09-07T05:09:03.207Z,14.02
2022-09-07T05:11:31.564Z,18.75
2022-09-07T05:14:03.437Z,12.30
2022-09-07T05:16:32.474Z,14.80
2022-09-07T05:19:04.106Z,12.63
2022-09-07T05:21:34.986Z,14.75
2022-09-07T05:24:04.418Z,14.77
2022-09-07T05:26:36.187Z,14.82
2022-09-07T05:31:56.228Z,16.05
2022-09-07T05:36:56.357Z,16.17
2022-09-07T05:39:25.421Z,15.35
2022-09-07T05:41:53.855Z,18.33
2022-09-07T05:47:12.605Z,14.27
2022-09-07T05:49:41.283Z,13.65
2022-09-07T05:52:09.923Z,12.38
2022-09-07T05:54:38.225Z,15.93
2022-09-07T05:57:07.114Z,16.48
2022-09-07T05:59:36.749Z,14.65
2022-09-07T06:02:05.710Z,18.10
2022-09-07T06:04:34.723Z,21.48
2022-09-07T06:07:22.131Z,21.33
2022-09-07T06:12:39.545Z,20.33
2022-09-07T06:15:11.391Z,17.75
2022-09-07T06:17:40.058Z,14.18
2022-09-07T06:20:10.312Z,20.05
2022-09-07T06:22:39.323Z,19.63
2022-09-07T06:25:08.269Z,18.75
2022-09-07T06:27:36.532Z,19.52
2022-09-07T06:30:05.841Z,18.58
2022-09-07T06:32:45.537Z,18.48
2022-09-07T06:35:16.135Z,17.40
2022-09-07T06:37:45.121Z,22.88
2022-09-07T06:40:14.008Z,18.75
2022-09-07T06:42:42.513Z,18.83
2022-09-07T06:45:12.949Z,18.10
2022-09-07T06:47:42.655Z,23.42
2022-09-07T06:50:12.454Z,17.85
2022-09-07T06:55:29.538Z,16.67
2022-09-07T06:57:58.022Z,23.80
2022-09-07T07:00:26.743Z,16.70
2022-09-07T07:02:56.439Z,18.92
2022-09-07T07:05:25.256Z,18.15
2022-09-07T07:07:53.506Z,18.27
2022-09-07T07:10:24.772Z,18.48
2022-09-07T07:12:57.568Z,14.77
2022-09-07T07:15:29.431Z,19.17
2022-09-07T07:18:05.445Z,17.30
2022-09-07T07:20:44.226Z,15.02
2022-09-07T07:23:13.281Z,20.38
2022-09-07T07:25:41.622Z,13.73
2022-09-07T07:31:00.036Z,23.02
2022-09-07T07:33:33.761Z,12.50
2022-09-07T07:36:11.640Z,15.50
2022-09-07T07:44:20.863Z,14.75
2022-09-07T07:46:50.360Z,12.07
2022-09-07T07:49:20.369Z,15.82
2022-09-07T07:54:37.862Z,11.40
2022-09-07T07:57:07.105Z,12.75
2022-09-07T07:59:36.173Z,14.40
2022-09-07T08:02:05.894Z,10.98
2022-09-07T08:04:36.942Z,14.75
2022-09-07T08:07:10.700Z,10.45
2022-09-07T08:09:41.551Z,12.45
2022-09-07T08:12:12.334Z,12.10
2022-09-07T08:14:42.115Z,9.48
2022-09-07T08:17:11.968Z,10.00
2022-09-07T08:19:42.217Z,9.55
2022-09-07T08:22:12.578Z,14.85
2022-09-07T08:24:41.168Z,10.55
2022-09-07T08:27:09.483Z,9.50
2022-09-07T08:29:37.859Z,10.27
2022-09-07T08:32:07.505Z,8.88
2022-09-07T08:34:38.269Z,8.88
2022-09-07T08:37:07.973Z,9.63
2022-09-07T08:39:37.681Z,9.15
2022-09-07T08:42:54.108Z,7.88
2022-09-07T08:45:30.802Z,8.43
2022-09-07T08:47:59.627Z,9.73
2022-09-07T08:50:34.539Z,9.00
2022-09-07T08:53:09.445Z,8.32
2022-09-07T08:55:46.542Z,9.02
2022-09-07T08:58:45.131Z,4.90
2022-09-07T09:04:19.374Z,6.60
2022-09-07T09:07:07.164Z,8.27
2022-09-07T09:10:05.717Z,6.35
2022-09-07T09:12:55.185Z,11.02
2022-09-07T09:15:32.756Z,5.45
2022-09-07T09:18:15.885Z,6.47
2022-09-07T09:20:51.529Z,6.40
2022-09-07T09:23:25.721Z,9.07
2022-09-07T09:25:58.105Z,7.25
2022-09-07T09:28:28.872Z,9.40
2022-09-07T09:31:00.135Z,3.97
2022-09-07T09:33:30.237Z,10.85
2022-09-07T09:36:01.726Z,9.88
2022-09-07T09:38:36.263Z,8.65
2022-09-07T09:41:09.101Z,5.40
2022-09-07T09:43:45.769Z,8.52
2022-09-07T09:46:27.331Z,6.47
2022-09-07T09:49:00.813Z,7.15
2022-09-07T09:54:27.363Z,6.72
2022-09-07T09:56:57.253Z,9.27
2022-09-07T10:05:30.592Z,9.73
2022-09-07T10:07:59.563Z,8.70
2022-09-07T10:10:31.464Z,9.05
2022-09-07T10:13:01.470Z,7.45
2022-09-07T10:15:40.109Z,11.80
2022-09-07T10:18:21.197Z,9.52
2022-09-07T10:20:49.994Z,7.40
2022-09-07T10:23:25.349Z,9.20
2022-09-07T10:25:53.738Z,7.32
2022-09-07T10:29:06.016Z,6.07
2022-09-07T10:31:22.858Z,6.82
2022-09-07T10:37:02.747Z,8.90
2022-09-07T10:39:37.596Z,8.65
2022-09-07T10:42:25.344Z,8.43
2022-09-07T10:45:11.815Z,8.43
2022-09-07T10:47:54.005Z,8.88
2022-09-07T10:50:32.820Z,6.38
2022-09-07T10:53:40.868Z,6.40
2022-09-07T10:56:14.290Z,5.82
2022-09-07T10:59:02.299Z,8.00
2022-09-07T11:01:53.004Z,4.22
2022-09-07T11:04:46.884Z,6.43
2022-09-07T11:07:31.543Z,6.50
2022-09-07T11:10:04.278Z,6.10
2022-09-07T11:12:37.430Z,6.07
2022-09-07T11:15:20.440Z,8.73
2022-09-07T11:17:58.005Z,6.13
2022-09-07T11:20:32.033Z,8.07
2022-09-07T11:23:16.289Z,10.95
2022-09-07T11:25:58.493Z,8.93
2022-09-07T11:28:32.271Z,6.57
2022-09-07T11:31:08.384Z,7.53
2022-09-07T11:36:51.841Z,8.43
2022-09-07T11:39:29.555Z,7.85
2022-09-07T11:42:42.685Z,6.60
2022-09-07T11:45:00.843Z,6.88
2022-09-07T11:47:38.189Z,7.57
2022-09-07T11:50:18.402Z,9.50
2022-09-07T11:52:55.035Z,13.63
2022-09-07T11:55:28.488Z,6.20
2022-09-07T11:58:32.077Z,7.28
2022-09-07T12:01:23.020Z,7.97
2022-09-07T12:04:18.683Z,9.27
2022-09-07T12:07:32.024Z,8.55
2022-09-07T12:10:37.860Z,7.93
2022-09-07T12:13:41.121Z,7.95
2022-09-07T12:16:19.462Z,7.40
2022-09-07T12:19:18.745Z,7.60
2022-09-07T12:21:55.595Z,7.35
2022-09-07T12:24:44.531Z,11.10
2022-09-07T12:27:42.838Z,7.88
2022-09-07T12:30:56.261Z,6.32
2022-09-07T12:33:35.543Z,6.97
2022-09-07T12:36:43.065Z,9.73
2022-09-07T12:39:25.700Z,9.55
2022-09-07T12:42:32.719Z,10.73
2022-09-07T12:45:51.421Z,7.88
2022-09-07T12:48:44.316Z,6.25
2022-09-07T12:54:32.910Z,9.95
2022-09-07T12:57:30.065Z,13.45
2022-09-07T13:00:17.353Z,9.52
2022-09-07T13:09:36.287Z,8.10
2022-09-07T13:15:42.931Z,7.50
2022-09-07T13:18:28.460Z,7.68
2022-09-07T13:21:40.508Z,8.60
2022-09-07T13:24:50.385Z,8.80
2022-09-07T13:27:46.750Z,8.23
2022-09-07T13:30:49.278Z,9.57
2022-09-07T13:33:48.661Z,7.55
2022-09-07T13:36:41.576Z,8.65
2022-09-07T13:39:16.797Z,6.65
2022-09-07T13:41:53.081Z,6.85
2022-09-07T13:44:26.718Z,9.50
2022-09-07T13:47:07.994Z,5.95
2022-09-07T13:50:01.795Z,5.28
2022-09-07T13:52:48.253Z,4.90
2022-09-07T13:55:33.261Z,7.35
2022-09-07T13:58:17.855Z,5.05
2022-09-07T14:00:57.355Z,6.50
2022-09-07T14:03:29.192Z,5.75
2022-09-07T14:06:32.666Z,5.18
2022-09-07T14:09:05.059Z,6.35
2022-09-07T14:11:43.801Z,6.70
2022-09-07T14:14:19.141Z,6.72
2022-09-07T14:16:55.356Z,6.15
2022-09-07T14:19:28.167Z,5.95
2022-09-07T14:22:02.815Z,9.95
2022-09-07T14:24:36.178Z,4.65
2022-09-07T14:27:06.697Z,9.57
2022-09-07T14:29:37.564Z,8.27
2022-09-07T14:32:16.157Z,7.07
2022-09-07T14:34:46.285Z,3.95
2022-09-07T14:37:18.692Z,8.75
2022-09-07T14:39:51.149Z,6.57
2022-09-07T14:42:25.090Z,8.40
2022-09-07T14:45:31.681Z,6.20
2022-09-07T14:48:11.474Z,6.57
2022-09-07T14:50:41.452Z,4.85
2022-09-07T14:56:11.541Z,5.80
2022-09-07T14:58:39.885Z,3.40
2022-09-07T15:04:20.263Z,5.60
2022-09-07T15:07:06.081Z,7.63
2022-09-07T15:09:38.753Z,7.20
2022-09-07T15:12:27.182Z,5.32
2022-09-07T15:15:12.683Z,7.50
2022-09-07T15:17:44.550Z,7.07
2022-09-07T15:20:39.712Z,8.30
2022-09-07T15:23:13.333Z,8.27
2022-09-07T15:25:45.367Z,5.05
2022-09-07T15:34:10.036Z,6.03
2022-09-07T15:36:42.416Z,3.90
2022-09-07T15:39:18.520Z,7.10
2022-09-07T15:41:47.146Z,5.78
2022-09-07T15:44:15.927Z,3.13
2022-09-07T15:47:42.474Z,5.18
2022-09-07T15:49:33.196Z,5.88
2022-09-07T15:52:06.866Z,6.10
2022-09-07T15:54:39.214Z,8.15
2022-09-07T15:59:56.332Z,7.72
2022-09-07T16:05:13.126Z,5.88
2022-09-07T16:10:31.793Z,6.45
2022-09-07T16:13:01.854Z,5.55
2022-09-07T16:15:31.260Z,4.18
2022-09-07T16:17:59.590Z,7.25
2022-09-07T16:20:31.879Z,5.40
2022-09-07T16:23:17.784Z,6.68
2022-09-07T16:25:58.175Z,4.93
2022-09-07T16:28:27.853Z,5.47
2022-09-07T16:30:57.009Z,5.38
2022-09-07T16:33:33.140Z,7.85
2022-09-07T16:36:09.371Z,4.47
2022-09-07T16:38:47.303Z,7.75
2022-09-07T16:41:20.009Z,5.13
2022-09-07T16:43:48.602Z,5.35
2022-09-07T16:46:19.626Z,6.93
2022-09-07T16:48:48.509Z,5.90
2022-09-07T16:51:19.719Z,4.25
2022-09-07T16:53:51.428Z,5.32
2022-09-07T16:56:22.846Z,5.93
2022-09-07T16:58:54.112Z,5.28
2022-09-07T17:01:26.476Z,8.65
2022-09-07T17:03:55.278Z,7.13
2022-09-07T17:06:26.955Z,4.10
2022-09-07T17:08:57.401Z,3.85
2022-09-07T17:11:28.183Z,5.10
2022-09-07T17:13:58.947Z,4.03
2022-09-07T17:16:30.700Z,5.72
2022-09-07T17:21:52.772Z,7.47
2022-09-07T17:24:22.673Z,6.30
2022-09-07T17:26:51.268Z,6.63
2022-09-07T17:29:19.808Z,7.30
2022-09-07T17:34:36.995Z,7.32
2022-09-07T17:37:05.394Z,5.38
2022-09-07T17:39:35.449Z,3.75
2022-09-07T17:42:03.742Z,4.43
2022-09-07T17:44:37.690Z,5.13
2022-09-07T17:47:06.987Z,5.38
2022-09-07T17:49:35.546Z,8.55
2022-09-07T17:52:05.052Z,8.43
2022-09-07T17:54:34.908Z,4.72
2022-09-07T17:57:04.055Z,5.78
2022-09-07T18:02:21.093Z,5.22
2022-09-07T18:04:49.968Z,5.57
2022-09-07T18:07:18.793Z,5.03
2022-09-07T18:09:48.808Z,7.45
2022-09-07T18:12:17.295Z,5.05
2022-09-07T18:14:45.639Z,7.95
2022-09-07T18:17:13.993Z,5.80
2022-09-07T18:19:42.451Z,5.18
2022-09-07T18:22:10.923Z,6.20
2022-09-07T18:24:39.538Z,6.22
2022-09-07T18:27:09.821Z,7.70
2022-09-07T18:29:38.554Z,7.82
2022-09-07T18:32:09.895Z,7.97
2022-09-07T18:34:41.355Z,5.75
2022-09-07T18:37:12.202Z,5.97
2022-09-07T18:39:41.719Z,6.53
2022-09-07T18:42:11.942Z,5.07
2022-09-07T18:47:29.491Z,6.88
2022-09-07T18:49:59.067Z,7.07
2022-09-07T18:55:17.220Z,5.32
2022-09-07T18:57:46.977Z,5.00
2022-09-07T19:00:16.174Z,4.63
2022-09-07T19:02:49.833Z,10.25
2022-09-07T19:08:08.823Z,4.60
2022-09-07T19:10:38.516Z,9.55
2022-09-07T19:13:08.203Z,4.43
2022-09-07T19:15:38.121Z,6.22
2022-09-07T19:18:08.836Z,7.13
2022-09-07T19:20:38.700Z,9.52
2022-09-07T19:23:07.945Z,9.02
2022-09-07T19:25:40.380Z,5.63
2022-09-07T19:28:10.378Z,6.57
2022-09-07T19:30:39.313Z,7.95
2022-09-07T19:33:10.012Z,7.88
2022-09-07T19:35:38.367Z,5.63
2022-09-07T19:38:06.725Z,7.35
2022-09-07T19:40:35.479Z,7.35
2022-09-07T19:43:04.036Z,7.85
2022-09-07T19:45:37.905Z,6.45
2022-09-07T19:48:06.723Z,5.90
2022-09-07T19:50:35.308Z,5.75
2022-09-07T19:53:03.641Z,6.60
2022-09-07T19:55:32.343Z,9.02
2022-09-07T19:58:00.658Z,9.70
2022-09-07T20:00:29.436Z,8.70
2022-09-07T20:02:59.723Z,4.38
2022-09-07T20:05:31.115Z,3.75
2022-09-07T20:07:59.918Z,5.55
2022-09-07T20:10:28.569Z,6.40
2022-09-07T20:12:57.038Z,9.43
2022-09-07T20:15:25.488Z,12.57
2022-09-07T20:17:54.265Z,5.35
2022-09-07T20:20:24.133Z,6.20
2022-09-07T20:22:52.497Z,7.55
2022-09-07T20:25:21.370Z,7.82
2022-09-07T20:27:49.999Z,8.15
2022-09-07T20:30:18.867Z,5.95
2022-09-07T20:32:47.878Z,9.90
2022-09-07T20:35:16.650Z,7.10
2022-09-07T20:37:46.580Z,8.77
2022-09-07T20:40:15.264Z,9.63
2022-09-07T20:42:43.893Z,5.93
2022-09-07T20:45:12.555Z,10.48
2022-09-07T20:47:40.921Z,7.57
2022-09-07T20:50:10.176Z,9.68
2022-09-07T20:52:38.820Z,7.45
2022-09-07T20:55:10.123Z,7.85
2022-09-07T20:57:38.909Z,7.47
2022-09-07T21:00:09.051Z,6.20
2022-09-07T21:02:37.919Z,5.97
2022-09-07T21:05:07.881Z,6.97
2022-09-07T21:07:38.930Z,8.25
2022-09-07T21:10:10.361Z,9.75
2022-09-07T21:12:38.841Z,7.80
2022-09-07T21:15:08.945Z,9.02
2022-09-07T21:17:38.864Z,5.78
2022-09-07T21:20:08.073Z,8.18
2022-09-07T21:22:36.336Z,8.90
2022-09-07T21:25:05.057Z,6.88
2022-09-07T21:27:38.777Z,7.80
2022-09-07T21:30:08.953Z,7.32
2022-09-07T21:32:38.453Z,7.00
2022-09-07T21:35:10.131Z,7.70
2022-09-07T21:37:38.535Z,11.40
2022-09-07T21:40:08.575Z,6.95
2022-09-07T21:42:39.600Z,5.22
2022-09-07T21:45:10.373Z,4.75
2022-09-07T21:47:39.131Z,8.77
2022-09-07T21:50:08.340Z,8.38
2022-09-07T21:52:38.898Z,6.78
2022-09-07T21:55:09.140Z,5.80
2022-09-07T21:57:39.070Z,5.40
2022-09-07T22:00:09.677Z,9.88
2022-09-07T22:02:38.222Z,6.70
2022-09-07T22:05:07.080Z,7.13
2022-09-07T22:07:35.921Z,7.03
2022-09-07T22:10:04.911Z,8.60
2022-09-07T22:12:33.232Z,8.85
2022-09-07T22:15:03.153Z,6.95
2022-09-07T22:17:31.552Z,6.88
2022-09-07T22:19:59.951Z,7.55
2022-09-07T22:22:28.563Z,6.25
2022-09-07T22:24:57.515Z,8.15
2022-09-07T22:27:26.002Z,5.63
2022-09-07T22:29:54.734Z,7.93
2022-09-07T22:32:24.530Z,7.47
2022-09-07T22:34:53.159Z,6.53
2022-09-07T22:37:21.968Z,4.88
2022-09-07T22:39:50.530Z,7.05
2022-09-07T22:42:19.019Z,6.40
2022-09-07T22:44:47.454Z,5.38
2022-09-07T22:47:15.810Z,8.70
2022-09-07T22:49:45.580Z,6.45
2022-09-07T22:52:13.969Z,6.63
2022-09-07T22:54:42.641Z,6.65
2022-09-07T22:57:11.040Z,7.57
2022-09-07T22:59:39.474Z,6.60
2022-09-07T23:02:08.070Z,4.05
2022-09-07T23:04:36.667Z,4.03
2022-09-07T23:07:07.696Z,7.40
2022-09-07T23:09:36.397Z,8.45
2022-09-07T23:12:04.939Z,6.78
2022-09-07T23:14:33.874Z,13.48
2022-09-07T23:17:02.249Z,12.65
2022-09-07T23:19:30.847Z,8.65
2022-09-07T23:21:59.629Z,8.57
2022-09-07T23:24:29.363Z,8.48
2022-09-07T23:26:57.943Z,6.28
2022-09-07T23:29:26.361Z,6.38
2022-09-07T23:31:54.635Z,8.27
2022-09-07T23:34:22.883Z,9.07
2022-09-07T23:36:51.200Z,8.75
2022-09-07T23:39:19.434Z,17.70
2022-09-07T23:41:49.031Z,15.15
2022-09-07T23:44:17.259Z,11.13
2022-09-07T23:46:45.497Z,7.18
2022-09-07T23:49:13.791Z,10.10
2022-09-07T23:51:41.984Z,8.77
2022-09-07T23:54:10.655Z,13.40
2022-09-07T23:56:39.108Z,4.80
2022-09-07T23:59:10.586Z,4.32
